KPCD/PCD METAR and TAF weather

Enter ICAO airport designator
Station Type Date Time Source
KPCD METAR 2022/06/30 13:35 UTC NOAA

KPCD 301335Z AUTO 00000KT 10SM CLR 23/15 A3015 RMK AO2 T02300154


Station Type Date Time Source
KPCD Decoded METAR 2022/06/30 13:35 UTC NOAA

Station name not available
Jun 30, 2022 - 09:35 AM EDT / 2022.06.30 1335 UTC
Wind: Calm:0
Visibility: 10 mile(s):0
Sky conditions: clear
Temperature: 73.4 F (23.0 C)
Dew Point: 59.7 F (15.4 C)
Relative Humidity: 62%
Pressure (altimeter): 30.15 in. Hg (1020 hPa)
ob: KPCD 301335Z AUTO 00000KT 10SM CLR 23/15 A3015 RMK AO2 T02300154
cycle: 13

Station Type Date Time Source
KPCD TAF UTC NOAA

Error!

Example: see airport list